Green Fast — ZDHA9 — position and weather

sailwx.info

Track history (hours):
 
Tides and Currents Weather Stations Pressure Air Temp Water Temp Dewpoint Dewpoint Depression Visibility Wind Speed Wind Dir Waves Ship Positions

Green Fast

Last reported at 2017-Dec-11 15:28 UTC. Time now 2017-Dec-14 15:16 UTC.
Position N 26°04' W 080°07'.

Length 118 m; draft 6 m.

Type: Cargo ship. MMSI: 236294000.

Date/timePositionNaut miles runAvg speedWind from/ knotsBaromVisibWave heightAir tempDewpointWater temp
2017-Dec-11 15:28N 26°04' W 080°07'1 2.3
2017-Dec-11 15:00N 26°05' W 080°07'4 8.4
2017-Dec-11 14:30N 26°05' W 080°02'612.4
2017-Dec-11 14:00N 26°05' W 079°55'612.5
2017-Dec-11 13:29N 26°04' W 079°48'611.6
2017-Dec-11 13:00N 26°03' W 079°42'611.0
2017-Dec-11 12:29N 25°60' W 079°36'611.9
2017-Dec-11 12:00N 25°54' W 079°35'511.2
2017-Dec-11 11:30N 25°49' W 079°34'1211.0
2017-Dec-11 10:28N 25°38' W 079°33'611.5
2017-Dec-11 09:59N 25°32' W 079°32'  
2017-Dec-07 11:23N 09°43' W 079°44'514.2
2017-Dec-07 11:00N 09°38' W 079°47'714.0
2017-Dec-07 10:30N 09°32' W 079°51'714.7
2017-Dec-07 10:00N 09°26' W 079°55'611.5
2017-Dec-07 09:30N 09°21' W 079°55'4 7.8
2017-Dec-07 09:00N 09°17' W 079°55'0 0.7
2017-Dec-07 08:30N 09°16' W 079°55'0 0.4
2017-Dec-07 08:00N 09°16' W 079°55'1 1.4
2017-Dec-07 07:31N 09°15' W 079°55'1 1.3
2017-Dec-07 07:00N 09°15' W 079°55'1 2.1
2017-Dec-07 06:30N 09°14' W 079°55'3 5.8
2017-Dec-07 06:00N 09°12' W 079°53'  
Track history (hours):
 
Tides and Currents Weather Stations Pressure Air Temp Water Temp Dewpoint Dewpoint Depression Visibility Wind Speed Wind Dir Waves Ship Positions

Green Fast

Last reported at 2017-Dec-11 15:28 UTC. Time now 2017-Dec-14 15:16 UTC.
Position N 26°04' W 080°07'.

Length 118 m; draft 6 m.

Type: Cargo ship. MMSI: 236294000.

Date/timePositionNaut miles runAvg speedWind from/ knotsBaromVisibWave heightAir tempDewpointWater temp
2017-Dec-11 15:28N 26°04' W 080°07'1 2.3
2017-Dec-11 15:00N 26°05' W 080°07'4 8.4
2017-Dec-11 14:30N 26°05' W 080°02'612.4
2017-Dec-11 14:00N 26°05' W 079°55'612.5
2017-Dec-11 13:29N 26°04' W 079°48'611.6
2017-Dec-11 13:00N 26°03' W 079°42'611.0
2017-Dec-11 12:29N 25°60' W 079°36'611.9
2017-Dec-11 12:00N 25°54' W 079°35'511.2
2017-Dec-11 11:30N 25°49' W 079°34'1211.0
2017-Dec-11 10:28N 25°38' W 079°33'611.5
2017-Dec-11 09:59N 25°32' W 079°32'  
2017-Dec-07 11:23N 09°43' W 079°44'514.2
2017-Dec-07 11:00N 09°38' W 079°47'714.0
2017-Dec-07 10:30N 09°32' W 079°51'714.7
2017-Dec-07 10:00N 09°26' W 079°55'611.5
2017-Dec-07 09:30N 09°21' W 079°55'4 7.8
2017-Dec-07 09:00N 09°17' W 079°55'0 0.7
2017-Dec-07 08:30N 09°16' W 079°55'0 0.4
2017-Dec-07 08:00N 09°16' W 079°55'1 1.4
2017-Dec-07 07:31N 09°15' W 079°55'1 1.3
2017-Dec-07 07:00N 09°15' W 079°55'1 2.1
2017-Dec-07 06:30N 09°14' W 079°55'3 5.8
2017-Dec-07 06:00N 09°12' W 079°53'  

Dump ship's entire track history